Sterling, Nebraska
Current Conditions -  °F | °C
As of 10:35 AM on Saturday 22 Nov 2014 (Local Time) from KBIE Reporting Station
Haze Haze  
Wind Chill: 32°   Ceiling: 400
Heat Index: 41°   Visibility: 5mi
Dew Point: 40°   Wind: 17mph
Humidity: 95%   Direction: 200°SSW
Pressure: 29.87"   Gusts: 22mph
Location:  40.46°N, 96.38°W
Report Text: KBIE 221635Z AUTO 20015G19KT 5SM BR OVC004 05/04 A2987 RMK AO2 LTG DSNT SW T00500042
Loading
Personal Weather Stations






























Interactive Weather Map New forecast layout! Learn more

10-Day Weather Forecast

Advertisements
Track Severe Weather on mobile